sensor_id;sensor_type;location;lat;lon;timestamp;temperature;humidity
52211;DHT22;38179;52.756;6.906;2022-12-07T00:01:08;3.60;99.90
52211;DHT22;38179;52.756;6.906;2022-12-07T00:03:35;3.60;99.90
52211;DHT22;38179;52.756;6.906;2022-12-07T00:06:02;3.60;99.90
52211;DHT22;38179;52.756;6.906;2022-12-07T00:08:28;3.60;99.90
52211;DHT22;38179;52.756;6.906;2022-12-07T00:10:55;3.50;99.90
52211;DHT22;38179;52.756;6.906;2022-12-07T00:13:21;3.50;99.90
52211;DHT22;38179;52.756;6.906;2022-12-07T00:15:46;3.50;99.90
52211;DHT22;38179;52.756;6.906;2022-12-07T00:18:12;3.40;99.90
52211;DHT22;38179;52.756;6.906;2022-12-07T00:20:38;3.40;99.90
52211;DHT22;38179;52.756;6.906;2022-12-07T00:23:04;3.40;99.90
52211;DHT22;38179;52.756;6.906;2022-12-07T00:25:30;3.40;99.90
52211;DHT22;38179;52.756;6.906;2022-12-07T00:27:56;3.40;99.90
52211;DHT22;38179;52.756;6.906;2022-12-07T00:30:22;3.40;99.90
52211;DHT22;38179;52.756;6.906;2022-12-07T00:32:49;3.30;99.90
52211;DHT22;38179;52.756;6.906;2022-12-07T00:35:15;3.30;99.90
52211;DHT22;38179;52.756;6.906;2022-12-07T00:37:41;3.30;99.90
52211;DHT22;38179;52.756;6.906;2022-12-07T00:40:07;3.20;99.90
52211;DHT22;38179;52.756;6.906;2022-12-07T00:42:36;3.30;99.90
52211;DHT22;38179;52.756;6.906;2022-12-07T00:45:02;3.20;99.90
52211;DHT22;38179;52.756;6.906;2022-12-07T00:47:28;3.20;99.90
52211;DHT22;38179;52.756;6.906;2022-12-07T00:49:53;3.20;99.90
52211;DHT22;38179;52.756;6.906;2022-12-07T00:52:19;3.20;99.90
52211;DHT22;38179;52.756;6.906;2022-12-07T00:54:45;3.20;99.90
52211;DHT22;38179;52.756;6.906;2022-12-07T00:57:11;3.20;99.90
52211;DHT22;38179;52.756;6.906;2022-12-07T00:59:37;3.20;99.90
52211;DHT22;38179;52.756;6.906;2022-12-07T01:02:03;3.20;99.90
52211;DHT22;38179;52.756;6.906;2022-12-07T01:04:28;3.20;99.90
52211;DHT22;38179;52.756;6.906;2022-12-07T01:06:55;3.20;99.90
52211;DHT22;38179;52.756;6.906;2022-12-07T01:09:21;3.10;99.90
52211;DHT22;38179;52.756;6.906;2022-12-07T01:11:46;3.10;99.90
52211;DHT22;38179;52.756;6.906;2022-12-07T01:14:12;3.10;99.90
52211;DHT22;38179;52.756;6.906;2022-12-07T01:16:38;3.00;99.90
52211;DHT22;38179;52.756;6.906;2022-12-07T01:19:04;3.10;99.90
52211;DHT22;38179;52.756;6.906;2022-12-07T01:21:32;3.10;99.90
52211;DHT22;38179;52.756;6.906;2022-12-07T01:24:09;3.00;99.90
52211;DHT22;38179;52.756;6.906;2022-12-07T01:26:35;3.00;99.90
52211;DHT22;38179;52.756;6.906;2022-12-07T01:29:01;3.00;99.90
52211;DHT22;38179;52.756;6.906;2022-12-07T01:31:28;3.00;99.90
52211;DHT22;38179;52.756;6.906;2022-12-07T01:33:56;3.00;99.90
52211;DHT22;38179;52.756;6.906;2022-12-07T01:36:28;3.00;99.90
52211;DHT22;38179;52.756;6.906;2022-12-07T01:38:57;3.00;99.90
52211;DHT22;38179;52.756;6.906;2022-12-07T01:41:26;3.00;99.90
52211;DHT22;38179;52.756;6.906;2022-12-07T01:46:55;3.00;99.90
52211;DHT22;38179;52.756;6.906;2022-12-07T01:49:46;3.00;99.90
52211;DHT22;38179;52.756;6.906;2022-12-07T01:52:29;3.00;99.90
52211;DHT22;38179;52.756;6.906;2022-12-07T01:55:08;3.00;99.90
52211;DHT22;38179;52.756;6.906;2022-12-07T01:57:39;3.00;99.90
52211;DHT22;38179;52.756;6.906;2022-12-07T02:00:06;3.00;99.90
52211;DHT22;38179;52.756;6.906;2022-12-07T02:02:35;2.90;99.90
52211;DHT22;38179;52.756;6.906;2022-12-07T02:05:02;2.90;99.90
52211;DHT22;38179;52.756;6.906;2022-12-07T02:07:29;2.90;99.90
52211;DHT22;38179;52.756;6.906;2022-12-07T02:09:56;2.80;99.90
52211;DHT22;38179;52.756;6.906;2022-12-07T02:12:23;2.90;99.90
52211;DHT22;38179;52.756;6.906;2022-12-07T02:14:50;2.90;99.90
52211;DHT22;38179;52.756;6.906;2022-12-07T02:23:11;2.90;99.90
52211;DHT22;38179;52.756;6.906;2022-12-07T02:28:26;2.90;99.90
52211;DHT22;38179;52.756;6.906;2022-12-07T02:30:55;2.90;99.90
52211;DHT22;38179;52.756;6.906;2022-12-07T02:33:29;3.00;99.90
52211;DHT22;38179;52.756;6.906;2022-12-07T02:36:04;3.00;99.90
52211;DHT22;38179;52.756;6.906;2022-12-07T02:38:38;3.00;99.90
52211;DHT22;38179;52.756;6.906;2022-12-07T02:43:58;3.10;99.90
52211;DHT22;38179;52.756;6.906;2022-12-07T02:46:34;3.10;99.90
52211;DHT22;38179;52.756;6.906;2022-12-07T02:49:35;3.10;99.90
52211;DHT22;38179;52.756;6.906;2022-12-07T02:52:02;3.20;99.90
52211;DHT22;38179;52.756;6.906;2022-12-07T02:54:28;3.20;99.90
52211;DHT22;38179;52.756;6.906;2022-12-07T03:00:15;3.20;99.90
52211;DHT22;38179;52.756;6.906;2022-12-07T03:05:45;3.10;99.90
52211;DHT22;38179;52.756;6.906;2022-12-07T03:11:05;3.00;99.90
52211;DHT22;38179;52.756;6.906;2022-12-07T03:19:05;2.90;99.90
52211;DHT22;38179;52.756;6.906;2022-12-07T03:21:38;2.90;99.90
52211;DHT22;38179;52.756;6.906;2022-12-07T03:24:12;2.90;99.90
52211;DHT22;38179;52.756;6.906;2022-12-07T03:26:44;2.90;99.90
52211;DHT22;38179;52.756;6.906;2022-12-07T03:29:22;2.90;99.90
52211;DHT22;38179;52.756;6.906;2022-12-07T03:31:59;2.80;99.90
52211;DHT22;38179;52.756;6.906;2022-12-07T03:37:29;2.80;99.90
52211;DHT22;38179;52.756;6.906;2022-12-07T03:40:24;2.70;99.90
52211;DHT22;38179;52.756;6.906;2022-12-07T03:42:49;2.70;99.90
52211;DHT22;38179;52.756;6.906;2022-12-07T03:45:16;2.70;99.90
52211;DHT22;38179;52.756;6.906;2022-12-07T03:47:52;2.70;99.90
52211;DHT22;38179;52.756;6.906;2022-12-07T03:50:29;2.70;99.90
52211;DHT22;38179;52.756;6.906;2022-12-07T03:53:02;2.70;99.90
52211;DHT22;38179;52.756;6.906;2022-12-07T03:55:33;2.80;99.90
52211;DHT22;38179;52.756;6.906;2022-12-07T03:58:04;2.80;99.90
52211;DHT22;38179;52.756;6.906;2022-12-07T04:00:31;2.70;99.90
52211;DHT22;38179;52.756;6.906;2022-12-07T04:02:58;2.70;99.90
52211;DHT22;38179;52.756;6.906;2022-12-07T04:05:24;2.70;99.90
52211;DHT22;38179;52.756;6.906;2022-12-07T04:07:50;2.70;99.90
52211;DHT22;38179;52.756;6.906;2022-12-07T04:10:16;2.60;99.90
52211;DHT22;38179;52.756;6.906;2022-12-07T04:12:42;2.60;99.90
52211;DHT22;38179;52.756;6.906;2022-12-07T04:15:08;2.60;99.90
52211;DHT22;38179;52.756;6.906;2022-12-07T04:17:34;2.60;99.90
52211;DHT22;38179;52.756;6.906;2022-12-07T04:20:00;2.60;99.90
52211;DHT22;38179;52.756;6.906;2022-12-07T04:22:27;2.00;99.90
52211;DHT22;38179;52.756;6.906;2022-12-07T04:24:53;2.60;99.90
52211;DHT22;38179;52.756;6.906;2022-12-07T04:27:19;2.50;99.90
52211;DHT22;38179;52.756;6.906;2022-12-07T04:29:45;2.50;99.90
52211;DHT22;38179;52.756;6.906;2022-12-07T04:32:11;2.50;99.90
52211;DHT22;38179;52.756;6.906;2022-12-07T04:34:36;2.50;99.90
52211;DHT22;38179;52.756;6.906;2022-12-07T04:37:02;2.40;99.90
52211;DHT22;38179;52.756;6.906;2022-12-07T04:39:32;2.50;99.90
52211;DHT22;38179;52.756;6.906;2022-12-07T04:41:59;2.50;99.90
52211;DHT22;38179;52.756;6.906;2022-12-07T04:44:26;2.50;99.90
52211;DHT22;38179;52.756;6.906;2022-12-07T04:46:52;2.40;99.90
52211;DHT22;38179;52.756;6.906;2022-12-07T04:49:19;2.40;99.90
52211;DHT22;38179;52.756;6.906;2022-12-07T04:51:45;2.40;99.90
52211;DHT22;38179;52.756;6.906;2022-12-07T04:54:12;2.40;99.90
52211;DHT22;38179;52.756;6.906;2022-12-07T04:56:38;2.40;99.90
52211;DHT22;38179;52.756;6.906;2022-12-07T04:59:04;2.30;99.90
52211;DHT22;38179;52.756;6.906;2022-12-07T05:01:31;2.30;99.90
52211;DHT22;38179;52.756;6.906;2022-12-07T05:03:58;2.30;99.90
52211;DHT22;38179;52.756;6.906;2022-12-07T05:06:24;2.30;99.90
52211;DHT22;38179;52.756;6.906;2022-12-07T05:08:50;2.20;99.90
52211;DHT22;38179;52.756;6.906;2022-12-07T05:11:16;2.20;99.90
52211;DHT22;38179;52.756;6.906;2022-12-07T05:14:02;2.20;99.90
52211;DHT22;38179;52.756;6.906;2022-12-07T05:16:28;2.10;99.90
52211;DHT22;38179;52.756;6.906;2022-12-07T05:18:54;2.10;99.90
52211;DHT22;38179;52.756;6.906;2022-12-07T05:21:20;2.10;99.90
52211;DHT22;38179;52.756;6.906;2022-12-07T05:23:46;2.10;99.90
52211;DHT22;38179;52.756;6.906;2022-12-07T05:26:12;2.10;99.90
52211;DHT22;38179;52.756;6.906;2022-12-07T05:28:38;2.10;99.90
52211;DHT22;38179;52.756;6.906;2022-12-07T05:31:04;2.10;99.90
52211;DHT22;38179;52.756;6.906;2022-12-07T05:33:30;2.10;99.90
52211;DHT22;38179;52.756;6.906;2022-12-07T05:35:56;2.10;99.90
52211;DHT22;38179;52.756;6.906;2022-12-07T05:38:21;2.10;99.90
52211;DHT22;38179;52.756;6.906;2022-12-07T05:40:47;2.10;99.90
52211;DHT22;38179;52.756;6.906;2022-12-07T05:43:13;2.10;99.90
52211;DHT22;38179;52.756;6.906;2022-12-07T05:45:39;2.10;99.90
52211;DHT22;38179;52.756;6.906;2022-12-07T05:48:05;2.20;99.90
52211;DHT22;38179;52.756;6.906;2022-12-07T05:50:31;2.20;99.90
52211;DHT22;38179;52.756;6.906;2022-12-07T05:52:57;2.20;99.90
52211;DHT22;38179;52.756;6.906;2022-12-07T05:55:23;2.20;99.90
52211;DHT22;38179;52.756;6.906;2022-12-07T05:57:48;2.20;99.90
52211;DHT22;38179;52.756;6.906;2022-12-07T06:00:33;2.20;99.90
52211;DHT22;38179;52.756;6.906;2022-12-07T06:02:58;2.30;99.90
52211;DHT22;38179;52.756;6.906;2022-12-07T06:05:24;2.40;99.90
52211;DHT22;38179;52.756;6.906;2022-12-07T06:07:50;2.30;99.90
52211;DHT22;38179;52.756;6.906;2022-12-07T06:10:16;2.30;99.90
52211;DHT22;38179;52.756;6.906;2022-12-07T06:12:42;2.30;99.90
52211;DHT22;38179;52.756;6.906;2022-12-07T06:15:09;2.30;99.90
52211;DHT22;38179;52.756;6.906;2022-12-07T06:17:36;2.30;99.90
52211;DHT22;38179;52.756;6.906;2022-12-07T06:20:03;2.30;99.90
52211;DHT22;38179;52.756;6.906;2022-12-07T06:22:29;2.30;99.90
52211;DHT22;38179;52.756;6.906;2022-12-07T06:24:55;2.30;99.90
52211;DHT22;38179;52.756;6.906;2022-12-07T06:27:21;2.30;99.90
52211;DHT22;38179;52.756;6.906;2022-12-07T06:29:46;2.20;99.90
52211;DHT22;38179;52.756;6.906;2022-12-07T06:32:12;2.20;99.90
52211;DHT22;38179;52.756;6.906;2022-12-07T06:34:38;2.20;99.90
52211;DHT22;38179;52.756;6.906;2022-12-07T06:37:04;2.20;99.90
52211;DHT22;38179;52.756;6.906;2022-12-07T06:39:30;2.20;99.90
52211;DHT22;38179;52.756;6.906;2022-12-07T06:41:57;2.10;99.90
52211;DHT22;38179;52.756;6.906;2022-12-07T06:44:23;2.10;99.90
52211;DHT22;38179;52.756;6.906;2022-12-07T06:46:50;2.10;99.90
52211;DHT22;38179;52.756;6.906;2022-12-07T06:49:20;2.00;99.90
52211;DHT22;38179;52.756;6.906;2022-12-07T06:51:46;2.00;99.90
52211;DHT22;38179;52.756;6.906;2022-12-07T06:54:14;2.00;99.90
52211;DHT22;38179;52.756;6.906;2022-12-07T06:56:41;1.90;99.90
52211;DHT22;38179;52.756;6.906;2022-12-07T06:59:07;1.90;99.90
52211;DHT22;38179;52.756;6.906;2022-12-07T07:01:34;1.90;99.90
52211;DHT22;38179;52.756;6.906;2022-12-07T07:04:01;1.90;99.90
52211;DHT22;38179;52.756;6.906;2022-12-07T07:06:27;1.80;99.90
52211;DHT22;38179;52.756;6.906;2022-12-07T07:08:53;1.80;99.90
52211;DHT22;38179;52.756;6.906;2022-12-07T07:11:19;1.80;99.90
52211;DHT22;38179;52.756;6.906;2022-12-07T07:13:45;1.80;99.90
52211;DHT22;38179;52.756;6.906;2022-12-07T07:16:11;1.80;99.90
52211;DHT22;38179;52.756;6.906;2022-12-07T07:18:37;1.80;99.90
52211;DHT22;38179;52.756;6.906;2022-12-07T07:21:03;1.70;99.90
52211;DHT22;38179;52.756;6.906;2022-12-07T07:23:30;1.80;99.90
52211;DHT22;38179;52.756;6.906;2022-12-07T07:25:56;1.80;99.90
52211;DHT22;38179;52.756;6.906;2022-12-07T07:28:22;1.80;99.90
52211;DHT22;38179;52.756;6.906;2022-12-07T07:30:48;1.90;99.90
52211;DHT22;38179;52.756;6.906;2022-12-07T07:33:14;1.90;99.90
52211;DHT22;38179;52.756;6.906;2022-12-07T07:35:40;1.90;99.90
52211;DHT22;38179;52.756;6.906;2022-12-07T07:38:06;1.90;99.90
52211;DHT22;38179;52.756;6.906;2022-12-07T07:40:32;1.90;99.90
52211;DHT22;38179;52.756;6.906;2022-12-07T07:42:58;1.90;99.90
52211;DHT22;38179;52.756;6.906;2022-12-07T07:45:25;2.00;99.90
52211;DHT22;38179;52.756;6.906;2022-12-07T07:47:52;2.00;99.90
52211;DHT22;38179;52.756;6.906;2022-12-07T07:50:18;2.00;99.90
52211;DHT22;38179;52.756;6.906;2022-12-07T07:52:45;2.00;99.90
52211;DHT22;38179;52.756;6.906;2022-12-07T07:55:11;2.00;99.90
52211;DHT22;38179;52.756;6.906;2022-12-07T07:57:38;2.00;99.90
52211;DHT22;38179;52.756;6.906;2022-12-07T08:00:12;2.00;99.90
52211;DHT22;38179;52.756;6.906;2022-12-07T08:02:38;2.10;99.90
52211;DHT22;38179;52.756;6.906;2022-12-07T08:05:05;2.10;99.90
52211;DHT22;38179;52.756;6.906;2022-12-07T08:07:31;2.10;99.90
52211;DHT22;38179;52.756;6.906;2022-12-07T08:09:57;2.10;99.90
52211;DHT22;38179;52.756;6.906;2022-12-07T08:12:22;2.10;99.90
52211;DHT22;38179;52.756;6.906;2022-12-07T08:14:48;2.10;99.90
52211;DHT22;38179;52.756;6.906;2022-12-07T08:17:14;2.20;99.90
52211;DHT22;38179;52.756;6.906;2022-12-07T08:19:40;2.20;99.90
52211;DHT22;38179;52.756;6.906;2022-12-07T08:22:06;2.20;99.90
52211;DHT22;38179;52.756;6.906;2022-12-07T08:24:36;2.30;99.90
52211;DHT22;38179;52.756;6.906;2022-12-07T08:27:02;2.30;99.90
52211;DHT22;38179;52.756;6.906;2022-12-07T08:29:29;2.30;99.90
52211;DHT22;38179;52.756;6.906;2022-12-07T08:31:55;2.40;99.90
52211;DHT22;38179;52.756;6.906;2022-12-07T08:34:21;2.40;99.90
52211;DHT22;38179;52.756;6.906;2022-12-07T08:36:47;2.40;99.90
52211;DHT22;38179;52.756;6.906;2022-12-07T08:39:13;2.40;99.90
52211;DHT22;38179;52.756;6.906;2022-12-07T08:41:38;2.40;99.90
52211;DHT22;38179;52.756;6.906;2022-12-07T08:44:05;2.40;99.90
52211;DHT22;38179;52.756;6.906;2022-12-07T08:46:49;2.50;99.90
52211;DHT22;38179;52.756;6.906;2022-12-07T08:49:22;2.50;99.90
52211;DHT22;38179;52.756;6.906;2022-12-07T08:51:50;2.50;99.90
52211;DHT22;38179;52.756;6.906;2022-12-07T08:54:17;2.50;99.90
52211;DHT22;38179;52.756;6.906;2022-12-07T08:56:47;2.50;99.90
52211;DHT22;38179;52.756;6.906;2022-12-07T08:59:15;2.50;99.90
52211;DHT22;38179;52.756;6.906;2022-12-07T09:01:42;2.40;99.90
52211;DHT22;38179;52.756;6.906;2022-12-07T09:04:09;2.40;99.90
52211;DHT22;38179;52.756;6.906;2022-12-07T09:06:35;2.40;99.90
52211;DHT22;38179;52.756;6.906;2022-12-07T09:09:01;2.40;99.90
52211;DHT22;38179;52.756;6.906;2022-12-07T09:11:28;2.40;99.90
52211;DHT22;38179;52.756;6.906;2022-12-07T09:13:54;2.50;99.90
52211;DHT22;38179;52.756;6.906;2022-12-07T09:16:20;2.50;99.90
52211;DHT22;38179;52.756;6.906;2022-12-07T09:18:46;2.50;99.90
52211;DHT22;38179;52.756;6.906;2022-12-07T09:21:12;2.60;99.90
52211;DHT22;38179;52.756;6.906;2022-12-07T09:23:38;2.70;99.90
52211;DHT22;38179;52.756;6.906;2022-12-07T09:26:04;2.80;99.90
52211;DHT22;38179;52.756;6.906;2022-12-07T09:28:30;2.80;99.90
52211;DHT22;38179;52.756;6.906;2022-12-07T09:30:56;2.80;99.90
52211;DHT22;38179;52.756;6.906;2022-12-07T09:33:23;2.80;99.90
52211;DHT22;38179;52.756;6.906;2022-12-07T09:35:50;2.80;99.90
52211;DHT22;38179;52.756;6.906;2022-12-07T09:38:16;2.90;99.90
52211;DHT22;38179;52.756;6.906;2022-12-07T09:40:43;2.90;99.90
52211;DHT22;38179;52.756;6.906;2022-12-07T09:43:20;2.90;99.90
52211;DHT22;38179;52.756;6.906;2022-12-07T09:45:49;2.90;99.90
52211;DHT22;38179;52.756;6.906;2022-12-07T09:48:22;2.90;99.90
52211;DHT22;38179;52.756;6.906;2022-12-07T09:50:49;3.00;99.90
52211;DHT22;38179;52.756;6.906;2022-12-07T09:53:25;3.10;99.90
52211;DHT22;38179;52.756;6.906;2022-12-07T09:55:51;3.20;99.90
52211;DHT22;38179;52.756;6.906;2022-12-07T09:58:25;3.20;99.90
52211;DHT22;38179;52.756;6.906;2022-12-07T10:00:58;3.30;99.90
52211;DHT22;38179;52.756;6.906;2022-12-07T10:03:27;3.40;99.90
52211;DHT22;38179;52.756;6.906;2022-12-07T10:05:53;3.50;99.90
52211;DHT22;38179;52.756;6.906;2022-12-07T10:08:19;3.50;99.90
52211;DHT22;38179;52.756;6.906;2022-12-07T10:10:52;3.60;99.90
52211;DHT22;38179;52.756;6.906;2022-12-07T10:13:34;3.70;99.90
52211;DHT22;38179;52.756;6.906;2022-12-07T10:16:01;3.60;99.90
52211;DHT22;38179;52.756;6.906;2022-12-07T10:18:41;3.60;99.90
52211;DHT22;38179;52.756;6.906;2022-12-07T10:21:18;3.60;99.90
52211;DHT22;38179;52.756;6.906;2022-12-07T10:24:13;3.60;99.90
52211;DHT22;38179;52.756;6.906;2022-12-07T10:26:53;3.70;99.90
52211;DHT22;38179;52.756;6.906;2022-12-07T10:29:32;3.70;99.90
52211;DHT22;38179;52.756;6.906;2022-12-07T10:32:00;3.70;99.90
52211;DHT22;38179;52.756;6.906;2022-12-07T10:34:32;3.70;99.90
52211;DHT22;38179;52.756;6.906;2022-12-07T10:39:51;3.70;99.90
52211;DHT22;38179;52.756;6.906;2022-12-07T10:42:22;3.80;99.90
52211;DHT22;38179;52.756;6.906;2022-12-07T10:44:49;3.80;99.90
52211;DHT22;38179;52.756;6.906;2022-12-07T10:55:33;3.80;99.90
52211;DHT22;38179;52.756;6.906;2022-12-07T11:09:54;3.80;99.90
52211;DHT22;38179;52.756;6.906;2022-12-07T11:28:45;3.90;99.90
52211;DHT22;38179;52.756;6.906;2022-12-07T11:31:37;3.90;99.90
52211;DHT22;38179;52.756;6.906;2022-12-07T11:37:11;4.00;99.90
52211;DHT22;38179;52.756;6.906;2022-12-07T11:39:51;4.00;99.90
52211;DHT22;38179;52.756;6.906;2022-12-07T11:42:26;4.00;99.90
52211;DHT22;38179;52.756;6.906;2022-12-07T12:06:43;4.30;99.90
52211;DHT22;38179;52.756;6.906;2022-12-07T12:09:36;4.50;99.90
52211;DHT22;38179;52.756;6.906;2022-12-07T12:25:55;4.90;99.90
52211;DHT22;38179;52.756;6.906;2022-12-07T12:28:40;5.10;99.90
52211;DHT22;38179;52.756;6.906;2022-12-07T12:33:58;5.10;99.90
52211;DHT22;38179;52.756;6.906;2022-12-07T12:39:10;5.20;99.90
52211;DHT22;38179;52.756;6.906;2022-12-07T12:51:50;5.20;99.90
52211;DHT22;38179;52.756;6.906;2022-12-07T12:54:28;5.20;99.90
52211;DHT22;38179;52.756;6.906;2022-12-07T12:59:59;5.20;99.90
52211;DHT22;38179;52.756;6.906;2022-12-07T13:26:24;5.00;99.90
52211;DHT22;38179;52.756;6.906;2022-12-07T13:34:04;5.00;99.90
52211;DHT22;38179;52.756;6.906;2022-12-07T13:36:33;5.00;99.90
52211;DHT22;38179;52.756;6.906;2022-12-07T13:41:43;5.10;99.90
52211;DHT22;38179;52.756;6.906;2022-12-07T13:44:13;5.10;99.90
52211;DHT22;38179;52.756;6.906;2022-12-07T13:49:23;5.20;99.90
52211;DHT22;38179;52.756;6.906;2022-12-07T13:51:49;5.20;99.90
52211;DHT22;38179;52.756;6.906;2022-12-07T13:54:16;5.20;99.90
52211;DHT22;38179;52.756;6.906;2022-12-07T13:56:42;5.20;99.90
52211;DHT22;38179;52.756;6.906;2022-12-07T13:59:23;5.20;99.90
52211;DHT22;38179;52.756;6.906;2022-12-07T14:01:52;5.10;99.90
52211;DHT22;38179;52.756;6.906;2022-12-07T14:04:51;5.10;99.90
52211;DHT22;38179;52.756;6.906;2022-12-07T14:07:27;4.90;99.90
52211;DHT22;38179;52.756;6.906;2022-12-07T14:10:02;4.90;99.90
52211;DHT22;38179;52.756;6.906;2022-12-07T14:12:30;4.80;99.90
52211;DHT22;38179;52.756;6.906;2022-12-07T14:14:57;4.70;99.90
52211;DHT22;38179;52.756;6.906;2022-12-07T14:17:25;4.70;99.90
52211;DHT22;38179;52.756;6.906;2022-12-07T14:19:54;4.60;99.90
52211;DHT22;38179;52.756;6.906;2022-12-07T14:25:22;4.50;99.90
52211;DHT22;38179;52.756;6.906;2022-12-07T14:30:17;4.40;99.90
52211;DHT22;38179;52.756;6.906;2022-12-07T14:32:44;4.40;99.90
52211;DHT22;38179;52.756;6.906;2022-12-07T14:35:16;4.30;99.90
52211;DHT22;38179;52.756;6.906;2022-12-07T14:37:45;4.30;99.90
52211;DHT22;38179;52.756;6.906;2022-12-07T14:40:26;4.30;99.90
52211;DHT22;38179;52.756;6.906;2022-12-07T14:43:04;4.20;99.90
52211;DHT22;38179;52.756;6.906;2022-12-07T14:45:32;4.20;99.90
52211;DHT22;38179;52.756;6.906;2022-12-07T14:47:58;4.20;99.90
52211;DHT22;38179;52.756;6.906;2022-12-07T14:50:25;4.10;99.90
52211;DHT22;38179;52.756;6.906;2022-12-07T14:52:57;4.10;99.90
52211;DHT22;38179;52.756;6.906;2022-12-07T14:55:27;4.10;99.90
52211;DHT22;38179;52.756;6.906;2022-12-07T14:57:54;4.00;99.90
52211;DHT22;38179;52.756;6.906;2022-12-07T15:00:22;4.10;99.90
52211;DHT22;38179;52.756;6.906;2022-12-07T15:02:48;4.10;99.90
52211;DHT22;38179;52.756;6.906;2022-12-07T15:05:15;4.00;99.90
52211;DHT22;38179;52.756;6.906;2022-12-07T15:07:41;4.00;99.90
52211;DHT22;38179;52.756;6.906;2022-12-07T15:10:14;3.90;99.90
52211;DHT22;38179;52.756;6.906;2022-12-07T15:12:41;3.90;99.90
52211;DHT22;38179;52.756;6.906;2022-12-07T15:15:08;3.90;99.90
52211;DHT22;38179;52.756;6.906;2022-12-07T15:17:34;3.90;99.90
52211;DHT22;38179;52.756;6.906;2022-12-07T15:20:00;3.90;99.90
52211;DHT22;38179;52.756;6.906;2022-12-07T15:22:26;3.80;99.90
52211;DHT22;38179;52.756;6.906;2022-12-07T15:24:52;3.80;99.90
52211;DHT22;38179;52.756;6.906;2022-12-07T15:27:18;3.70;99.90
52211;DHT22;38179;52.756;6.906;2022-12-07T15:29:43;3.80;99.90
52211;DHT22;38179;52.756;6.906;2022-12-07T15:32:09;3.80;99.90
52211;DHT22;38179;52.756;6.906;2022-12-07T15:34:35;3.80;99.90
52211;DHT22;38179;52.756;6.906;2022-12-07T15:37:01;3.70;99.90
52211;DHT22;38179;52.756;6.906;2022-12-07T15:39:27;3.70;99.90
52211;DHT22;38179;52.756;6.906;2022-12-07T15:41:53;3.70;99.90
52211;DHT22;38179;52.756;6.906;2022-12-07T15:44:19;3.70;99.90
52211;DHT22;38179;52.756;6.906;2022-12-07T15:47:04;3.70;99.90
52211;DHT22;38179;52.756;6.906;2022-12-07T15:49:30;3.70;99.90
52211;DHT22;38179;52.756;6.906;2022-12-07T15:51:56;3.70;99.90
52211;DHT22;38179;52.756;6.906;2022-12-07T15:54:25;3.70;99.90
52211;DHT22;38179;52.756;6.906;2022-12-07T15:56:52;3.70;99.90
52211;DHT22;38179;52.756;6.906;2022-12-07T15:59:17;3.70;99.90
52211;DHT22;38179;52.756;6.906;2022-12-07T16:01:44;3.70;99.90
52211;DHT22;38179;52.756;6.906;2022-12-07T16:04:10;3.70;99.90
52211;DHT22;38179;52.756;6.906;2022-12-07T16:06:36;3.70;99.90
52211;DHT22;38179;52.756;6.906;2022-12-07T16:09:02;3.80;99.90
52211;DHT22;38179;52.756;6.906;2022-12-07T16:11:29;3.80;99.90
52211;DHT22;38179;52.756;6.906;2022-12-07T16:13:55;3.80;99.90
52211;DHT22;38179;52.756;6.906;2022-12-07T16:16:21;3.70;99.90
52211;DHT22;38179;52.756;6.906;2022-12-07T16:18:53;3.70;99.90
52211;DHT22;38179;52.756;6.906;2022-12-07T16:21:19;3.70;99.90
52211;DHT22;38179;52.756;6.906;2022-12-07T16:23:46;3.60;99.90
52211;DHT22;38179;52.756;6.906;2022-12-07T16:26:14;3.60;99.90
52211;DHT22;38179;52.756;6.906;2022-12-07T16:28:41;3.50;99.90
52211;DHT22;38179;52.756;6.906;2022-12-07T16:31:10;3.50;99.90
52211;DHT22;38179;52.756;6.906;2022-12-07T16:33:37;3.50;99.90
52211;DHT22;38179;52.756;6.906;2022-12-07T16:36:06;3.50;99.90
52211;DHT22;38179;52.756;6.906;2022-12-07T16:38:32;3.50;99.90
52211;DHT22;38179;52.756;6.906;2022-12-07T16:40:58;3.40;99.90
52211;DHT22;38179;52.756;6.906;2022-12-07T16:43:24;3.40;99.90
52211;DHT22;38179;52.756;6.906;2022-12-07T16:45:50;3.40;99.90
52211;DHT22;38179;52.756;6.906;2022-12-07T16:48:16;3.40;99.90
52211;DHT22;38179;52.756;6.906;2022-12-07T16:50:43;3.40;99.90
52211;DHT22;38179;52.756;6.906;2022-12-07T16:53:10;3.40;99.90
52211;DHT22;38179;52.756;6.906;2022-12-07T16:55:41;3.40;99.90
52211;DHT22;38179;52.756;6.906;2022-12-07T16:58:08;3.30;99.90
52211;DHT22;38179;52.756;6.906;2022-12-07T17:00:37;3.40;99.90
52211;DHT22;38179;52.756;6.906;2022-12-07T17:03:03;3.40;99.90
52211;DHT22;38179;52.756;6.906;2022-12-07T17:05:29;3.40;99.90
52211;DHT22;38179;52.756;6.906;2022-12-07T17:07:56;3.40;99.90
52211;DHT22;38179;52.756;6.906;2022-12-07T17:10:23;3.40;99.90
52211;DHT22;38179;52.756;6.906;2022-12-07T17:12:49;3.40;99.90
52211;DHT22;38179;52.756;6.906;2022-12-07T17:15:16;3.40;99.90
52211;DHT22;38179;52.756;6.906;2022-12-07T17:17:45;3.40;99.90
52211;DHT22;38179;52.756;6.906;2022-12-07T17:20:13;3.40;99.90
52211;DHT22;38179;52.756;6.906;2022-12-07T17:22:38;3.40;99.90
52211;DHT22;38179;52.756;6.906;2022-12-07T17:25:05;3.40;99.90
52211;DHT22;38179;52.756;6.906;2022-12-07T17:27:31;3.40;99.90
52211;DHT22;38179;52.756;6.906;2022-12-07T17:29:57;3.40;99.90
52211;DHT22;38179;52.756;6.906;2022-12-07T17:32:23;3.30;99.90
52211;DHT22;38179;52.756;6.906;2022-12-07T17:34:49;3.30;99.90
52211;DHT22;38179;52.756;6.906;2022-12-07T17:37:15;3.30;99.90
52211;DHT22;38179;52.756;6.906;2022-12-07T17:39:40;3.30;99.90
52211;DHT22;38179;52.756;6.906;2022-12-07T17:42:07;3.30;99.90
52211;DHT22;38179;52.756;6.906;2022-12-07T17:44:52;3.20;99.90
52211;DHT22;38179;52.756;6.906;2022-12-07T17:47:18;3.20;99.90
52211;DHT22;38179;52.756;6.906;2022-12-07T17:49:46;3.20;99.90
52211;DHT22;38179;52.756;6.906;2022-12-07T17:52:13;3.20;99.90
52211;DHT22;38179;52.756;6.906;2022-12-07T17:54:57;3.20;99.90
52211;DHT22;38179;52.756;6.906;2022-12-07T17:57:23;3.10;99.90
52211;DHT22;38179;52.756;6.906;2022-12-07T17:59:49;3.10;99.90
52211;DHT22;38179;52.756;6.906;2022-12-07T18:02:17;3.10;99.90
52211;DHT22;38179;52.756;6.906;2022-12-07T18:04:43;3.10;99.90
52211;DHT22;38179;52.756;6.906;2022-12-07T18:07:10;3.00;99.90
52211;DHT22;38179;52.756;6.906;2022-12-07T18:09:36;3.00;99.90
52211;DHT22;38179;52.756;6.906;2022-12-07T18:12:02;3.00;99.90
52211;DHT22;38179;52.756;6.906;2022-12-07T18:14:28;3.00;99.90
52211;DHT22;38179;52.756;6.906;2022-12-07T18:16:54;2.90;99.90
52211;DHT22;38179;52.756;6.906;2022-12-07T18:19:20;2.90;99.90
52211;DHT22;38179;52.756;6.906;2022-12-07T18:21:46;2.90;99.90
52211;DHT22;38179;52.756;6.906;2022-12-07T18:24:14;2.90;99.90
52211;DHT22;38179;52.756;6.906;2022-12-07T18:26:41;2.90;99.90
52211;DHT22;38179;52.756;6.906;2022-12-07T18:29:08;2.90;99.90
52211;DHT22;38179;52.756;6.906;2022-12-07T18:31:35;2.90;99.90
52211;DHT22;38179;52.756;6.906;2022-12-07T18:34:06;2.90;99.90
52211;DHT22;38179;52.756;6.906;2022-12-07T18:36:38;3.00;99.90
52211;DHT22;38179;52.756;6.906;2022-12-07T18:39:05;3.00;99.90
52211;DHT22;38179;52.756;6.906;2022-12-07T18:41:31;2.90;99.90